BAW21B EGLL-KLAX
Flight info
| Callsign | BAW21B |
|---|---|
| Flight time | N/A |
| Altitude | 32000 |
| Route | ULTIB T420 TNT UN57 POL UN601 RIBEL DCT ASLIB DCT BALIX/M084F320 DCT 64N020W/M084F340 67N030W 69N040W 69N050W 69N060W DCT BOPUT/N0481F340 DCT 68N070W/N0485F360 65N085W 61N095W DCT YYL DCT DURUR/N0489F380 DCT KATEN DCT BIL DCT MLF DCT WINEN/N0482F390 Q73 EEVUN/N0485F380 Q73 HAKMN ANJLL4 |
| Aircraft | B77W/H-SDE1E2E3FGHIJ2J3J4J5M1RWXY/LB1D1 |
Departure
| Time | N/A |
|---|---|
| Airport | London Heathrow Airport (EGLL) |
Arrival
| Time | 2026-05-04 17:52 |
|---|---|
| Airport | Los Angeles International Airport (KLAX) |
| Time | Latitude | Longitude | Altitude | Speed | Heading |
|---|---|---|---|---|---|
| 2026-05-04 08:50 | 62.09898 | -15.62901 | 33981 ft | 421 kts | 312° |
| 2026-05-04 08:50 | 62.11994 | -15.67270 | 33979 ft | 420 kts | 312° |
| 2026-05-04 08:51 | 62.16140 | -15.75935 | 33981 ft | 420 kts | 312° |
| 2026-05-04 08:51 | 62.20306 | -15.84678 | 33981 ft | 419 kts | 312° |
| 2026-05-04 08:52 | 62.24470 | -15.93452 | 33995 ft | 420 kts | 311° |
| 2026-05-04 08:52 | 62.28603 | -16.02196 | 33983 ft | 419 kts | 311° |
| 2026-05-04 08:54 | 62.45113 | -16.37487 | 33983 ft | 417 kts | 311° |
| 2026-05-04 08:55 | 62.49233 | -16.46386 | 33990 ft | 420 kts | 311° |
| 2026-05-04 08:55 | 62.53367 | -16.55350 | 34004 ft | 421 kts | 311° |
| 2026-05-04 09:01 | 62.96011 | -17.50064 | 33995 ft | 412 kts | 311° |
| 2026-05-04 09:01 | 63.00053 | -17.59065 | 34054 ft | 414 kts | 311° |
| 2026-05-04 09:02 | 63.04034 | -17.68271 | 34061 ft | 416 kts | 310° |
| 2026-05-04 09:02 | 63.08032 | -17.77520 | 34057 ft | 417 kts | 310° |
| 2026-05-04 09:03 | 63.12010 | -17.86705 | 34069 ft | 417 kts | 310° |
| 2026-05-04 09:03 | 63.16011 | -17.95961 | 34065 ft | 416 kts | 310° |
| 2026-05-04 09:04 | 63.19993 | -18.05212 | 34064 ft | 414 kts | 310° |
| 2026-05-04 09:04 | 63.23959 | -18.14464 | 34084 ft | 413 kts | 310° |
| 2026-05-04 09:05 | 63.27889 | -18.23675 | 34080 ft | 410 kts | 310° |
| 2026-05-04 09:05 | 63.31792 | -18.32861 | 34079 ft | 407 kts | 310° |
| 2026-05-04 09:06 | 63.35666 | -18.42020 | 34087 ft | 406 kts | 310° |
| 2026-05-04 09:08 | 63.51138 | -18.78986 | 34098 ft | 410 kts | 310° |
| 2026-05-04 09:08 | 63.55042 | -18.88409 | 34095 ft | 414 kts | 310° |
| 2026-05-04 09:09 | 63.58964 | -18.97924 | 34095 ft | 416 kts | 310° |
| 2026-05-04 09:09 | 63.62898 | -19.07503 | 34099 ft | 418 kts | 310° |
| 2026-05-04 09:10 | 63.66831 | -19.17122 | 34104 ft | 418 kts | 310° |
| 2026-05-04 09:10 | 63.70756 | -19.26766 | 34153 ft | 416 kts | 309° |
| 2026-05-04 09:11 | 63.74575 | -19.36180 | 34111 ft | 405 kts | 309° |
| 2026-05-04 09:11 | 63.78377 | -19.45614 | 34113 ft | 407 kts | 309° |
| 2026-05-04 09:12 | 63.82189 | -19.55107 | 34123 ft | 408 kts | 309° |
| 2026-05-04 09:14 | 63.97486 | -19.93598 | 34120 ft | 412 kts | 308° |
| 2026-05-04 09:14 | 64.01285 | -20.03328 | 34106 ft | 410 kts | 308° |
| 2026-05-04 09:15 | 64.04973 | -20.13243 | 34127 ft | 410 kts | 307° |
| 2026-05-04 09:15 | 64.08637 | -20.23237 | 34136 ft | 411 kts | 307° |
| 2026-05-04 09:17 | 64.25184 | -20.68631 | 34142 ft | 412 kts | 307° |
| 2026-05-04 09:18 | 64.28807 | -20.78679 | 34150 ft | 410 kts | 307° |
| 2026-05-04 09:18 | 64.32433 | -20.88786 | 34151 ft | 409 kts | 306° |
| 2026-05-04 09:19 | 64.36046 | -20.98902 | 34173 ft | 408 kts | 306° |
| 2026-05-04 09:19 | 64.39648 | -21.09035 | 34159 ft | 408 kts | 306° |
| 2026-05-04 09:20 | 64.43248 | -21.19207 | 34167 ft | 410 kts | 306° |
| 2026-05-04 09:20 | 64.46867 | -21.29482 | 34127 ft | 412 kts | 306° |
| 2026-05-04 09:21 | 64.50489 | -21.39810 | 34160 ft | 414 kts | 306° |
| 2026-05-04 09:21 | 64.54121 | -21.50214 | 34182 ft | 415 kts | 306° |
| 2026-05-04 09:22 | 64.57757 | -21.60680 | 34189 ft | 416 kts | 306° |
| 2026-05-04 09:22 | 64.61388 | -21.71180 | 34189 ft | 416 kts | 306° |
| 2026-05-04 09:23 | 64.65008 | -21.81700 | 34233 ft | 416 kts | 306° |
| 2026-05-04 09:23 | 64.68624 | -21.92258 | 34198 ft | 416 kts | 306° |
| 2026-05-04 09:25 | 64.83009 | -22.34756 | 34200 ft | 416 kts | 306° |
| 2026-05-04 09:26 | 64.86582 | -22.45441 | 34200 ft | 416 kts | 306° |
| 2026-05-04 09:26 | 64.90148 | -22.56157 | 34213 ft | 416 kts | 306° |
| 2026-05-04 09:27 | 64.93704 | -22.66891 | 34192 ft | 415 kts | 306° |
| 2026-05-04 09:27 | 64.97245 | -22.77632 | 34206 ft | 414 kts | 306° |
| 2026-05-04 09:28 | 65.00178 | -22.86569 | 34200 ft | 414 kts | 306° |
| 2026-05-04 09:28 | 65.03695 | -22.97334 | 34213 ft | 413 kts | 306° |
| 2026-05-04 09:29 | 65.07202 | -23.08120 | 34215 ft | 413 kts | 306° |
| 2026-05-04 09:29 | 65.10698 | -23.18922 | 34273 ft | 413 kts | 306° |
| 2026-05-04 09:30 | 65.14192 | -23.29775 | 34234 ft | 414 kts | 306° |
| 2026-05-04 09:30 | 65.17681 | -23.40662 | 34223 ft | 414 kts | 306° |
| 2026-05-04 09:31 | 65.21158 | -23.51567 | 34220 ft | 413 kts | 306° |
| 2026-05-04 09:31 | 65.24587 | -23.62371 | 34221 ft | 413 kts | 305° |
| 2026-05-04 09:32 | 65.28047 | -23.73330 | 34222 ft | 413 kts | 305° |
| 2026-05-04 09:34 | 65.41832 | -24.17528 | 34217 ft | 414 kts | 305° |
| 2026-05-04 09:34 | 65.45239 | -24.28587 | 34227 ft | 415 kts | 305° |
| 2026-05-04 09:35 | 65.48661 | -24.39753 | 34228 ft | 415 kts | 305° |
| 2026-05-04 09:35 | 65.52075 | -24.50946 | 34233 ft | 415 kts | 304° |
| 2026-05-04 09:37 | 65.65661 | -24.96062 | 34235 ft | 415 kts | 304° |
| 2026-05-04 09:38 | 65.69006 | -25.07310 | 34232 ft | 415 kts | 304° |
| 2026-05-04 09:38 | 65.72373 | -25.18691 | 34237 ft | 415 kts | 304° |
| 2026-05-04 09:39 | 65.75729 | -25.30094 | 34226 ft | 415 kts | 304° |
| 2026-05-04 09:39 | 65.79079 | -25.41535 | 34226 ft | 415 kts | 304° |
| 2026-05-04 09:40 | 65.82417 | -25.52996 | 34208 ft | 414 kts | 304° |
| 2026-05-04 09:40 | 65.85741 | -25.64463 | 34229 ft | 414 kts | 304° |
| 2026-05-04 09:42 | 65.98924 | -26.10547 | 34273 ft | 414 kts | 303° |
| 2026-05-04 09:43 | 66.02210 | -26.22185 | 34243 ft | 415 kts | 303° |
| 2026-05-04 09:43 | 66.05494 | -26.33876 | 34242 ft | 415 kts | 303° |
| 2026-05-04 09:44 | 66.08767 | -26.45591 | 34232 ft | 415 kts | 303° |
| 2026-05-04 09:46 | 66.21767 | -26.92739 | 34244 ft | 416 kts | 302° |
| 2026-05-04 09:46 | 66.25009 | -27.04654 | 34226 ft | 417 kts | 302° |
| 2026-05-04 09:47 | 66.28215 | -27.16502 | 34230 ft | 415 kts | 302° |
| 2026-05-04 09:49 | 66.40941 | -27.64165 | 34240 ft | 412 kts | 302° |
| 2026-05-04 09:51 | 66.52007 | -28.06470 | 34263 ft | 418 kts | 301° |
| 2026-05-04 09:51 | 66.55170 | -28.18710 | 34260 ft | 418 kts | 301° |
| 2026-05-04 09:52 | 66.58328 | -28.31000 | 34265 ft | 418 kts | 301° |
| 2026-05-04 09:52 | 66.61473 | -28.43312 | 34264 ft | 418 kts | 301° |
| 2026-05-04 09:53 | 66.64606 | -28.55643 | 34273 ft | 419 kts | 301° |
| 2026-05-04 09:53 | 66.67738 | -28.68040 | 34272 ft | 419 kts | 301° |
| 2026-05-04 09:54 | 66.70867 | -28.80494 | 34276 ft | 420 kts | 301° |
| 2026-05-04 09:54 | 66.73986 | -28.92979 | 34275 ft | 420 kts | 301° |
| 2026-05-04 09:55 | 66.77079 | -29.05435 | 34275 ft | 420 kts | 301° |
| 2026-05-04 09:55 | 66.80182 | -29.17999 | 34274 ft | 420 kts | 300° |
| 2026-05-04 09:56 | 66.83274 | -29.30589 | 34325 ft | 421 kts | 300° |
| 2026-05-04 09:56 | 66.86370 | -29.43272 | 34294 ft | 423 kts | 300° |
| 2026-05-04 09:57 | 66.89464 | -29.56023 | 34284 ft | 424 kts | 300° |
| 2026-05-04 09:57 | 66.92560 | -29.68850 | 34284 ft | 425 kts | 300° |
| 2026-05-04 09:58 | 66.95589 | -29.81478 | 34280 ft | 426 kts | 300° |
| 2026-05-04 09:58 | 66.98670 | -29.94386 | 34280 ft | 426 kts | 300° |
| 2026-05-04 10:00 | 67.11329 | -30.45685 | 34287 ft | 427 kts | 301° |
| 2026-05-04 10:04 | 67.33214 | -31.36725 | 34338 ft | 426 kts | 300° |
| 2026-05-04 10:04 | 67.36293 | -31.49849 | 34339 ft | 426 kts | 300° |
| 2026-05-04 10:05 | 67.39366 | -31.63025 | 34348 ft | 426 kts | 300° |
| 2026-05-04 10:05 | 67.42425 | -31.76216 | 34353 ft | 426 kts | 300° |
| 2026-05-04 10:06 | 67.45476 | -31.89460 | 34363 ft | 427 kts | 300° |
| 2026-05-04 10:06 | 67.48520 | -32.02752 | 34366 ft | 427 kts | 299° |
| 2026-05-04 10:08 | 67.59014 | -32.49209 | 34382 ft | 421 kts | 299° |
| 2026-05-04 10:08 | 67.61966 | -32.62463 | 34382 ft | 421 kts | 299° |
| 2026-05-04 10:09 | 67.64916 | -32.75788 | 34397 ft | 423 kts | 298° |
| 2026-05-04 10:09 | 67.67863 | -32.89183 | 34387 ft | 424 kts | 298° |
| 2026-05-04 10:10 | 67.70800 | -33.02622 | 34394 ft | 424 kts | 298° |
| 2026-05-04 10:10 | 67.73713 | -33.16027 | 34405 ft | 425 kts | 298° |
| 2026-05-04 10:11 | 67.76638 | -33.29573 | 34394 ft | 425 kts | 298° |
| 2026-05-04 10:11 | 67.79556 | -33.43175 | 34414 ft | 425 kts | 298° |
| 2026-05-04 10:12 | 67.82458 | -33.56785 | 34416 ft | 425 kts | 298° |
| 2026-05-04 10:12 | 67.85344 | -33.70407 | 34427 ft | 424 kts | 297° |
| 2026-05-04 10:13 | 67.88216 | -33.84057 | 34424 ft | 424 kts | 297° |
| 2026-05-04 10:13 | 67.91072 | -33.97720 | 34413 ft | 422 kts | 297° |
| 2026-05-04 10:14 | 67.93952 | -34.11145 | 34466 ft | 414 kts | 298° |
| 2026-05-04 10:16 | 68.03584 | -34.58385 | 34451 ft | 427 kts | 296° |
| 2026-05-04 10:16 | 68.04515 | -34.63052 | 34453 ft | 430 kts | 296° |
| 2026-05-04 10:16 | 68.07331 | -34.77175 | 34412 ft | 431 kts | 296° |
| 2026-05-04 10:17 | 68.10151 | -34.91301 | 34403 ft | 430 kts | 296° |
| 2026-05-04 10:19 | 68.21231 | -35.47566 | 34402 ft | 434 kts | 295° |
| 2026-05-04 10:19 | 68.24032 | -35.62090 | 34364 ft | 438 kts | 295° |
| 2026-05-04 10:20 | 68.26813 | -35.76568 | 34358 ft | 437 kts | 295° |
| 2026-05-04 10:20 | 68.29592 | -35.91122 | 34320 ft | 434 kts | 295° |
| 2026-05-04 10:21 | 68.32328 | -36.05551 | 34348 ft | 429 kts | 295° |
| 2026-05-04 10:21 | 68.35027 | -36.19894 | 34352 ft | 426 kts | 295° |
| 2026-05-04 10:22 | 68.39071 | -36.41572 | 34366 ft | 438 kts | 295° |
| 2026-05-04 10:23 | 68.41797 | -36.56350 | 34360 ft | 441 kts | 295° |
| 2026-05-04 10:25 | 68.52595 | -37.15810 | 34351 ft | 434 kts | 294° |
| 2026-05-04 10:25 | 68.55239 | -37.30647 | 34359 ft | 436 kts | 294° |
| 2026-05-04 10:26 | 68.57883 | -37.45590 | 34359 ft | 438 kts | 294° |
| 2026-05-04 10:26 | 68.60528 | -37.60645 | 34354 ft | 440 kts | 294° |
| 2026-05-04 10:27 | 68.63155 | -37.75715 | 34358 ft | 441 kts | 294° |
| 2026-05-04 10:27 | 68.65790 | -37.90939 | 34308 ft | 442 kts | 294° |
| 2026-05-04 10:28 | 68.68400 | -38.06135 | 34335 ft | 440 kts | 294° |
| 2026-05-04 10:28 | 68.70981 | -38.21278 | 34356 ft | 440 kts | 294° |
| 2026-05-04 10:29 | 68.73564 | -38.36547 | 34352 ft | 440 kts | 294° |
| 2026-05-04 10:29 | 68.76137 | -38.51875 | 34348 ft | 441 kts | 294° |
| 2026-05-04 10:30 | 68.78699 | -38.67256 | 34345 ft | 441 kts | 293° |
| 2026-05-04 10:30 | 68.81247 | -38.82671 | 34340 ft | 441 kts | 293° |
| 2026-05-04 10:31 | 68.83774 | -38.98076 | 34332 ft | 441 kts | 293° |
| 2026-05-04 10:32 | 68.92575 | -39.52697 | 34334 ft | 446 kts | 293° |
| 2026-05-04 10:33 | 68.95075 | -39.68491 | 34330 ft | 446 kts | 292° |
| 2026-05-04 10:33 | 68.97546 | -39.84217 | 34325 ft | 446 kts | 292° |
| 2026-05-04 10:34 | 68.99515 | -40.00435 | 34296 ft | 444 kts | 283° |
| 2026-05-04 10:34 | 69.00538 | -40.17366 | 34360 ft | 442 kts | 276° |
| 2026-05-04 10:35 | 69.00996 | -40.34482 | 34326 ft | 443 kts | 275° |
| 2026-05-04 10:35 | 69.01421 | -40.51635 | 34324 ft | 444 kts | 275° |
| 2026-05-04 10:36 | 69.01848 | -40.68827 | 34332 ft | 444 kts | 275° |
| 2026-05-04 10:36 | 69.02270 | -40.86055 | 34334 ft | 445 kts | 275° |
| 2026-05-04 10:37 | 69.02680 | -41.03296 | 34338 ft | 446 kts | 275° |
| 2026-05-04 10:37 | 69.03073 | -41.20591 | 34334 ft | 446 kts | 275° |
| 2026-05-04 10:39 | 69.04301 | -41.80791 | 34338 ft | 441 kts | 275° |
| 2026-05-04 10:40 | 69.04612 | -41.97883 | 34345 ft | 440 kts | 275° |
| 2026-05-04 10:40 | 69.04905 | -42.14967 | 34345 ft | 440 kts | 274° |
| 2026-05-04 10:41 | 69.05181 | -42.32061 | 34345 ft | 441 kts | 274° |
| 2026-05-04 10:41 | 69.05441 | -42.49203 | 34357 ft | 442 kts | 274° |
| 2026-05-04 10:42 | 69.05684 | -42.66390 | 34358 ft | 443 kts | 274° |
| 2026-05-04 10:42 | 69.05911 | -42.83613 | 34318 ft | 443 kts | 274° |
| 2026-05-04 10:43 | 69.06118 | -43.00758 | 34373 ft | 441 kts | 274° |
| 2026-05-04 10:45 | 69.06776 | -43.69000 | 34380 ft | 439 kts | 273° |
| 2026-05-04 10:45 | 69.06899 | -43.86090 | 34383 ft | 440 kts | 273° |
| 2026-05-04 10:46 | 69.07004 | -44.03190 | 34379 ft | 440 kts | 273° |
| 2026-05-04 10:46 | 69.07093 | -44.20291 | 34396 ft | 440 kts | 273° |
| 2026-05-04 10:47 | 69.07164 | -44.37401 | 34384 ft | 439 kts | 273° |
| 2026-05-04 10:47 | 69.07217 | -44.54432 | 34388 ft | 437 kts | 272° |
| 2026-05-04 10:49 | 69.07266 | -45.22205 | 34403 ft | 435 kts | 272° |
| 2026-05-04 10:50 | 69.07236 | -45.39165 | 34402 ft | 436 kts | 272° |
| 2026-05-04 10:52 | 69.06949 | -46.06987 | 34423 ft | 439 kts | 271° |
| 2026-05-04 10:52 | 69.06835 | -46.24065 | 34421 ft | 439 kts | 271° |
| 2026-05-04 10:54 | 69.06206 | -46.92382 | 34430 ft | 439 kts | 271° |
| 2026-05-04 10:56 | 69.05315 | -47.60070 | 34455 ft | 433 kts | 270° |
| 2026-05-04 10:57 | 69.05053 | -47.76872 | 34453 ft | 433 kts | 270° |
| 2026-05-04 10:57 | 69.04773 | -47.93713 | 34452 ft | 434 kts | 270° |
| 2026-05-04 10:58 | 69.04477 | -48.10544 | 34460 ft | 434 kts | 270° |
| 2026-05-04 10:58 | 69.04166 | -48.27301 | 34454 ft | 435 kts | 269° |
| 2026-05-04 10:59 | 69.03836 | -48.44178 | 34457 ft | 436 kts | 269° |
| 2026-05-04 10:59 | 69.03489 | -48.61006 | 34443 ft | 433 kts | 269° |
| 2026-05-04 11:00 | 69.03128 | -48.77755 | 34445 ft | 431 kts | 269° |
| 2026-05-04 11:02 | 69.01530 | -49.44418 | 34429 ft | 431 kts | 268° |
| 2026-05-04 11:05 | 69.01853 | -50.68375 | 34413 ft | 425 kts | 275° |
| 2026-05-04 11:06 | 69.02260 | -50.84840 | 34415 ft | 425 kts | 275° |
| 2026-05-04 11:06 | 69.02589 | -50.98645 | 34421 ft | 426 kts | 275° |
| 2026-05-04 11:10 | 69.04896 | -52.13552 | 34404 ft | 423 kts | 274° |
| 2026-05-04 11:12 | 69.05869 | -52.79300 | 34408 ft | 425 kts | 274° |
| 2026-05-04 11:12 | 69.06074 | -52.95822 | 34409 ft | 426 kts | 273° |
| 2026-05-04 11:13 | 69.06263 | -53.12364 | 34407 ft | 426 kts | 273° |
| 2026-05-04 11:13 | 69.06436 | -53.28944 | 34359 ft | 426 kts | 273° |
| 2026-05-04 11:14 | 69.06592 | -53.45355 | 34397 ft | 424 kts | 272° |
| 2026-05-04 11:16 | 69.07058 | -54.11033 | 34411 ft | 422 kts | 272° |
| 2026-05-04 11:16 | 69.07135 | -54.27461 | 34416 ft | 423 kts | 272° |
| 2026-05-04 11:17 | 69.07197 | -54.43899 | 34416 ft | 423 kts | 272° |
| 2026-05-04 11:19 | 69.07287 | -55.09806 | 34391 ft | 424 kts | 271° |
| 2026-05-04 11:19 | 69.07269 | -55.26318 | 34411 ft | 424 kts | 271° |
| 2026-05-04 11:20 | 69.07236 | -55.42835 | 34422 ft | 425 kts | 271° |
| 2026-05-04 11:20 | 69.07187 | -55.59336 | 34421 ft | 425 kts | 270° |
| 2026-05-04 11:22 | 69.06832 | -56.25319 | 34442 ft | 425 kts | 270° |
| 2026-05-04 11:23 | 69.06704 | -56.41853 | 34439 ft | 425 kts | 270° |
| 2026-05-04 11:25 | 69.06135 | -56.99138 | 34442 ft | 426 kts | 269° |
| 2026-05-04 11:25 | 69.05935 | -57.15714 | 34454 ft | 427 kts | 269° |
| 2026-05-04 11:27 | 69.04830 | -57.90606 | 34461 ft | 429 kts | 268° |
| 2026-05-04 11:28 | 69.04540 | -58.07234 | 34458 ft | 428 kts | 268° |
| 2026-05-04 11:28 | 69.04234 | -58.23848 | 34466 ft | 428 kts | 268° |
| 2026-05-04 11:29 | 69.03924 | -58.39889 | 34464 ft | 428 kts | 268° |
| 2026-05-04 11:29 | 69.03587 | -58.56464 | 34444 ft | 428 kts | 267° |
| 2026-05-04 11:33 | 69.00742 | -59.73842 | 34488 ft | 433 kts | 266° |
| 2026-05-04 11:33 | 69.00273 | -59.90597 | 34485 ft | 433 kts | 266° |
| 2026-05-04 11:34 | 68.99821 | -60.07303 | 34494 ft | 432 kts | 268° |
| 2026-05-04 11:34 | 68.99556 | -60.23908 | 34493 ft | 432 kts | 268° |
| 2026-05-04 11:35 | 68.99302 | -60.40765 | 34491 ft | 434 kts | 268° |
| 2026-05-04 11:35 | 68.99010 | -60.57560 | 34512 ft | 439 kts | 267° |
| 2026-05-04 11:36 | 68.98681 | -60.74737 | 34511 ft | 443 kts | 267° |
| 2026-05-04 11:36 | 68.98333 | -60.91814 | 34505 ft | 445 kts | 267° |
| 2026-05-04 11:37 | 68.97965 | -61.09024 | 34508 ft | 444 kts | 267° |
| 2026-05-04 11:37 | 68.97585 | -61.26093 | 34500 ft | 440 kts | 266° |
| 2026-05-04 11:38 | 68.97204 | -61.42452 | 34510 ft | 437 kts | 266° |
| 2026-05-04 11:38 | 68.96796 | -61.59282 | 34513 ft | 435 kts | 266° |
| 2026-05-04 11:39 | 68.96375 | -61.76077 | 34515 ft | 434 kts | 266° |
| 2026-05-04 11:41 | 68.92220 | -62.33904 | 34526 ft | 440 kts | 257° |
| 2026-05-04 11:41 | 68.90668 | -62.50367 | 34528 ft | 441 kts | 256° |
| 2026-05-04 11:42 | 68.89105 | -62.66811 | 34529 ft | 441 kts | 256° |
| 2026-05-04 11:42 | 68.87524 | -62.83251 | 34527 ft | 441 kts | 256° |
| 2026-05-04 11:43 | 68.85930 | -62.99644 | 34536 ft | 441 kts | 256° |
| 2026-05-04 11:43 | 68.84319 | -63.16016 | 34532 ft | 440 kts | 256° |
| 2026-05-04 11:44 | 68.82696 | -63.32328 | 34531 ft | 440 kts | 256° |
| 2026-05-04 11:44 | 68.81069 | -63.48503 | 34513 ft | 440 kts | 255° |
| 2026-05-04 11:45 | 68.79414 | -63.64776 | 34547 ft | 443 kts | 255° |
| 2026-05-04 11:45 | 68.78572 | -63.72994 | 34655 ft | 447 kts | 255° |
| 2026-05-04 11:45 | 68.77721 | -63.81240 | 34906 ft | 447 kts | 255° |
| 2026-05-04 11:45 | 68.76868 | -63.89472 | 35168 ft | 447 kts | 255° |
| 2026-05-04 11:46 | 68.76008 | -63.97716 | 35392 ft | 448 kts | 255° |
| 2026-05-04 11:46 | 68.75143 | -64.05978 | 35600 ft | 449 kts | 255° |
| 2026-05-04 11:46 | 68.74271 | -64.14252 | 35813 ft | 450 kts | 255° |
| 2026-05-04 11:46 | 68.73394 | -64.22523 | 36019 ft | 450 kts | 254° |
| 2026-05-04 11:47 | 68.72512 | -64.30806 | 36234 ft | 451 kts | 254° |
| 2026-05-04 11:47 | 68.71623 | -64.39110 | 36418 ft | 452 kts | 254° |
| 2026-05-04 11:47 | 68.70726 | -64.47441 | 36490 ft | 456 kts | 254° |
| 2026-05-04 11:48 | 68.68910 | -64.64171 | 36535 ft | 456 kts | 254° |
| 2026-05-04 11:48 | 68.67091 | -64.80755 | 36537 ft | 451 kts | 254° |
| 2026-05-04 11:49 | 68.65269 | -64.97176 | 36535 ft | 450 kts | 253° |
| 2026-05-04 11:49 | 68.63429 | -65.13596 | 36543 ft | 452 kts | 253° |
| 2026-05-04 11:50 | 68.61560 | -65.30126 | 36545 ft | 456 kts | 253° |
| 2026-05-04 11:50 | 68.59674 | -65.46627 | 36544 ft | 458 kts | 253° |
| 2026-05-04 11:51 | 68.57748 | -65.63301 | 36538 ft | 460 kts | 252° |
| 2026-05-04 11:51 | 68.55799 | -65.80001 | 36533 ft | 461 kts | 252° |
| 2026-05-04 11:52 | 68.53834 | -65.96670 | 36532 ft | 460 kts | 252° |
| 2026-05-04 11:52 | 68.51857 | -66.13264 | 36537 ft | 459 kts | 252° |
| 2026-05-04 11:53 | 68.49867 | -66.29807 | 36528 ft | 458 kts | 251° |
| 2026-05-04 11:53 | 68.47863 | -66.46302 | 36535 ft | 459 kts | 251° |
| 2026-05-04 11:55 | 68.39988 | -67.09606 | 36524 ft | 463 kts | 251° |
| 2026-05-04 11:56 | 68.37888 | -67.26103 | 36510 ft | 463 kts | 251° |
| 2026-05-04 11:56 | 68.35770 | -67.42571 | 36510 ft | 461 kts | 250° |
| 2026-05-04 11:57 | 68.33644 | -67.58947 | 36485 ft | 459 kts | 250° |
| 2026-05-04 11:57 | 68.31515 | -67.75211 | 36459 ft | 458 kts | 249° |
| 2026-05-04 11:58 | 68.29373 | -67.91408 | 36458 ft | 458 kts | 249° |
| 2026-05-04 11:58 | 68.27207 | -68.07608 | 36439 ft | 459 kts | 249° |
| 2026-05-04 11:59 | 68.25024 | -68.23825 | 36435 ft | 461 kts | 249° |
| 2026-05-04 11:59 | 68.22819 | -68.40059 | 36389 ft | 462 kts | 249° |
| 2026-05-04 12:00 | 68.20595 | -68.56275 | 36389 ft | 462 kts | 249° |
| 2026-05-04 12:00 | 68.18362 | -68.72427 | 36385 ft | 461 kts | 249° |
| 2026-05-04 12:01 | 68.16108 | -68.88537 | 36342 ft | 461 kts | 248° |
| 2026-05-04 12:02 | 68.07969 | -69.45700 | 36321 ft | 468 kts | 248° |
| 2026-05-04 12:03 | 68.05623 | -69.61847 | 36322 ft | 464 kts | 247° |
| 2026-05-04 12:03 | 68.03274 | -69.77877 | 36330 ft | 462 kts | 247° |
| 2026-05-04 12:04 | 68.00914 | -69.93847 | 36314 ft | 463 kts | 247° |
| 2026-05-04 12:04 | 67.98595 | -70.09814 | 36314 ft | 466 kts | 249° |
| 2026-05-04 12:05 | 67.96404 | -70.26166 | 36323 ft | 476 kts | 249° |
| 2026-05-04 12:05 | 67.94176 | -70.42854 | 36296 ft | 480 kts | 249° |
| 2026-05-04 12:06 | 67.91911 | -70.59494 | 36285 ft | 478 kts | 248° |
| 2026-05-04 12:06 | 67.89636 | -70.75939 | 36283 ft | 471 kts | 248° |
| 2026-05-04 12:07 | 67.87356 | -70.92209 | 36263 ft | 470 kts | 248° |
| 2026-05-04 12:07 | 67.85070 | -71.08406 | 36265 ft | 471 kts | 247° |
| 2026-05-04 12:08 | 67.82764 | -71.24548 | 36266 ft | 473 kts | 247° |
| 2026-05-04 12:08 | 67.80419 | -71.40842 | 36259 ft | 475 kts | 247° |
| 2026-05-04 12:09 | 67.78068 | -71.57061 | 36243 ft | 478 kts | 246° |
| 2026-05-04 12:09 | 67.75711 | -71.73168 | 36251 ft | 481 kts | 246° |
| 2026-05-04 12:10 | 67.73274 | -71.89687 | 36236 ft | 484 kts | 246° |
| 2026-05-04 12:10 | 67.70813 | -72.06194 | 36237 ft | 485 kts | 246° |
| 2026-05-04 12:11 | 67.68338 | -72.22688 | 36223 ft | 484 kts | 246° |
| 2026-05-04 12:11 | 67.65850 | -72.39115 | 36222 ft | 483 kts | 246° |
| 2026-05-04 12:12 | 67.63343 | -72.55460 | 36220 ft | 481 kts | 246° |
| 2026-05-04 12:12 | 67.60838 | -72.71727 | 36228 ft | 480 kts | 246° |
| 2026-05-04 12:14 | 67.50597 | -73.36694 | 36219 ft | 487 kts | 245° |
| 2026-05-04 12:15 | 67.47972 | -73.53007 | 36205 ft | 488 kts | 245° |
| 2026-05-04 12:15 | 67.45332 | -73.69269 | 36212 ft | 488 kts | 245° |
| 2026-05-04 12:16 | 67.42725 | -73.85193 | 36210 ft | 487 kts | 245° |
| 2026-05-04 12:16 | 67.40088 | -74.01174 | 36209 ft | 487 kts | 245° |
| 2026-05-04 12:17 | 67.37417 | -74.17227 | 36201 ft | 487 kts | 245° |
| 2026-05-04 12:17 | 67.34734 | -74.33206 | 36205 ft | 488 kts | 244° |
| 2026-05-04 12:18 | 67.32010 | -74.49304 | 36201 ft | 489 kts | 244° |
| 2026-05-04 12:18 | 67.29274 | -74.65356 | 36207 ft | 489 kts | 244° |
| 2026-05-04 12:19 | 67.26567 | -74.81107 | 36206 ft | 490 kts | 244° |
| 2026-05-04 12:19 | 67.23784 | -74.97169 | 36205 ft | 490 kts | 244° |
| 2026-05-04 12:20 | 67.20985 | -75.13193 | 36189 ft | 490 kts | 243° |
| 2026-05-04 12:20 | 67.18169 | -75.29181 | 36193 ft | 489 kts | 243° |
| 2026-05-04 12:21 | 67.15341 | -75.45113 | 36191 ft | 490 kts | 243° |
| 2026-05-04 12:21 | 67.12492 | -75.61036 | 36181 ft | 490 kts | 243° |
| 2026-05-04 12:22 | 67.09628 | -75.76913 | 36179 ft | 490 kts | 243° |
| 2026-05-04 12:22 | 67.06749 | -75.92751 | 36181 ft | 490 kts | 243° |
| 2026-05-04 12:23 | 67.03853 | -76.08564 | 36161 ft | 490 kts | 243° |
| 2026-05-04 12:23 | 67.01011 | -76.23954 | 36160 ft | 490 kts | 242° |
| 2026-05-04 12:24 | 66.98107 | -76.39564 | 36168 ft | 490 kts | 242° |
| 2026-05-04 12:24 | 66.95184 | -76.55152 | 36143 ft | 491 kts | 242° |
| 2026-05-04 12:25 | 66.92216 | -76.70864 | 36145 ft | 493 kts | 241° |
| 2026-05-04 12:25 | 66.89217 | -76.86617 | 36139 ft | 495 kts | 242° |
| 2026-05-04 12:26 | 66.86196 | -77.02365 | 36123 ft | 496 kts | 241° |
| 2026-05-04 12:26 | 66.83154 | -77.18110 | 36125 ft | 496 kts | 242° |
| 2026-05-04 12:27 | 66.80096 | -77.33821 | 36119 ft | 496 kts | 242° |
| 2026-05-04 12:27 | 66.77022 | -77.49470 | 36110 ft | 495 kts | 241° |
| 2026-05-04 12:28 | 66.74050 | -77.64509 | 36106 ft | 494 kts | 240° |
| 2026-05-04 12:28 | 66.70956 | -77.80043 | 36106 ft | 495 kts | 240° |
| 2026-05-04 12:29 | 66.67875 | -77.95414 | 36094 ft | 496 kts | 240° |
| 2026-05-04 12:29 | 66.64754 | -78.10859 | 36094 ft | 497 kts | 240° |
| 2026-05-04 12:30 | 66.61623 | -78.26234 | 36093 ft | 498 kts | 240° |
| 2026-05-04 12:30 | 66.58448 | -78.41715 | 36083 ft | 498 kts | 240° |
| 2026-05-04 12:31 | 66.55252 | -78.57172 | 36083 ft | 498 kts | 240° |
| 2026-05-04 12:31 | 66.52048 | -78.72568 | 36081 ft | 498 kts | 239° |
| 2026-05-04 12:32 | 66.47216 | -78.95587 | 36069 ft | 497 kts | 240° |
| 2026-05-04 12:33 | 66.43970 | -79.10889 | 36069 ft | 498 kts | 239° |
| 2026-05-04 12:33 | 66.40712 | -79.26162 | 36065 ft | 499 kts | 239° |
| 2026-05-04 12:34 | 66.37432 | -79.41429 | 36040 ft | 500 kts | 239° |
| 2026-05-04 12:34 | 66.34131 | -79.56670 | 36051 ft | 500 kts | 239° |
| 2026-05-04 12:35 | 66.30809 | -79.71903 | 36045 ft | 500 kts | 239° |
| 2026-05-04 12:35 | 66.27480 | -79.87063 | 36032 ft | 500 kts | 239° |
| 2026-05-04 12:36 | 66.24158 | -80.02078 | 36049 ft | 500 kts | 239° |
| 2026-05-04 12:36 | 66.20776 | -80.17261 | 36036 ft | 500 kts | 239° |
| 2026-05-04 12:37 | 66.17420 | -80.32220 | 36024 ft | 501 kts | 239° |
| 2026-05-04 12:37 | 66.14118 | -80.46839 | 36023 ft | 501 kts | 238° |
| 2026-05-04 12:38 | 66.10755 | -80.61627 | 36021 ft | 501 kts | 238° |
| 2026-05-04 12:38 | 66.07339 | -80.76543 | 36009 ft | 501 kts | 238° |
| 2026-05-04 12:39 | 66.03883 | -80.91534 | 36007 ft | 502 kts | 238° |
| 2026-05-04 12:39 | 66.00424 | -81.06434 | 36009 ft | 501 kts | 238° |
| 2026-05-04 12:40 | 65.96951 | -81.21291 | 36007 ft | 502 kts | 238° |
| 2026-05-04 12:40 | 65.93480 | -81.36035 | 36001 ft | 502 kts | 238° |
| 2026-05-04 12:41 | 65.89976 | -81.50823 | 36000 ft | 502 kts | 238° |
| 2026-05-04 12:41 | 65.86434 | -81.65669 | 35985 ft | 502 kts | 238° |
| 2026-05-04 12:42 | 65.83054 | -81.79743 | 35984 ft | 501 kts | 238° |
| 2026-05-04 12:42 | 65.79516 | -81.94375 | 35990 ft | 501 kts | 237° |
| 2026-05-04 12:43 | 65.75968 | -82.08955 | 35981 ft | 500 kts | 237° |
| 2026-05-04 12:43 | 65.73012 | -82.21027 | 36007 ft | 500 kts | 237° |
| 2026-05-04 12:44 | 65.69437 | -82.35536 | 35985 ft | 501 kts | 237° |
| 2026-05-04 12:44 | 65.65846 | -82.50018 | 35975 ft | 501 kts | 237° |
| 2026-05-04 12:45 | 65.62236 | -82.64478 | 35978 ft | 502 kts | 237° |
| 2026-05-04 12:45 | 65.58603 | -82.78938 | 35977 ft | 503 kts | 237° |
| 2026-05-04 12:46 | 65.54954 | -82.93363 | 35981 ft | 503 kts | 237° |
| 2026-05-04 12:46 | 65.51378 | -83.07409 | 35982 ft | 504 kts | 236° |
| 2026-05-04 12:47 | 65.47723 | -83.21675 | 35984 ft | 504 kts | 236° |
| 2026-05-04 12:47 | 65.44029 | -83.36002 | 35989 ft | 504 kts | 236° |
| 2026-05-04 12:48 | 65.40315 | -83.50311 | 35980 ft | 504 kts | 236° |
| 2026-05-04 12:48 | 65.36592 | -83.64562 | 35980 ft | 504 kts | 236° |
| 2026-05-04 12:49 | 65.32860 | -83.78760 | 35975 ft | 504 kts | 236° |
| 2026-05-04 12:49 | 65.29117 | -83.92904 | 35976 ft | 503 kts | 236° |
| 2026-05-04 12:50 | 65.25361 | -84.07009 | 35980 ft | 503 kts | 236° |
| 2026-05-04 12:50 | 65.21594 | -84.21067 | 35965 ft | 503 kts | 235° |
| 2026-05-04 12:51 | 65.17837 | -84.34999 | 35982 ft | 503 kts | 235° |
| 2026-05-04 12:51 | 65.14037 | -84.49001 | 35962 ft | 504 kts | 235° |
| 2026-05-04 12:52 | 65.10224 | -84.62968 | 35946 ft | 504 kts | 235° |
| 2026-05-04 12:52 | 65.06393 | -84.76913 | 35944 ft | 505 kts | 235° |
| 2026-05-04 12:53 | 65.02549 | -84.90827 | 35943 ft | 505 kts | 235° |
| 2026-05-04 12:53 | 64.98609 | -85.04571 | 35926 ft | 504 kts | 231° |
| 2026-05-04 12:54 | 64.94481 | -85.17514 | 35936 ft | 503 kts | 230° |
| 2026-05-04 12:54 | 64.90239 | -85.30628 | 35930 ft | 503 kts | 230° |
| 2026-05-04 12:55 | 64.85990 | -85.43762 | 35931 ft | 504 kts | 231° |
| 2026-05-04 12:55 | 64.81744 | -85.56864 | 35926 ft | 505 kts | 230° |
| 2026-05-04 12:56 | 64.77481 | -85.69957 | 35926 ft | 505 kts | 230° |
| 2026-05-04 12:56 | 64.73260 | -85.82842 | 35929 ft | 505 kts | 230° |
| 2026-05-04 12:57 | 64.68974 | -85.95847 | 35921 ft | 505 kts | 230° |
| 2026-05-04 12:57 | 64.64679 | -86.08803 | 35917 ft | 504 kts | 230° |
| 2026-05-04 12:58 | 64.60380 | -86.21693 | 35929 ft | 504 kts | 230° |
| 2026-05-04 12:58 | 64.56054 | -86.34592 | 35915 ft | 504 kts | 230° |
| 2026-05-04 12:59 | 64.51735 | -86.47397 | 35926 ft | 504 kts | 230° |
| 2026-05-04 12:59 | 64.47400 | -86.60173 | 35927 ft | 504 kts | 229° |
| 2026-05-04 13:00 | 64.43057 | -86.72903 | 35913 ft | 504 kts | 229° |
| 2026-05-04 13:00 | 64.38701 | -86.85597 | 35918 ft | 504 kts | 229° |
| 2026-05-04 13:01 | 64.34334 | -86.98249 | 35921 ft | 504 kts | 229° |
| 2026-05-04 13:01 | 64.29970 | -87.10823 | 35914 ft | 506 kts | 229° |
| 2026-05-04 13:02 | 64.25579 | -87.23404 | 35919 ft | 507 kts | 229° |
| 2026-05-04 13:02 | 64.21153 | -87.36011 | 35911 ft | 508 kts | 229° |
| 2026-05-04 13:03 | 64.16708 | -87.48607 | 35903 ft | 508 kts | 228° |
| 2026-05-04 13:03 | 64.12246 | -87.61176 | 35899 ft | 508 kts | 228° |
| 2026-05-04 13:04 | 64.07776 | -87.73697 | 35897 ft | 508 kts | 228° |
| 2026-05-04 13:04 | 64.03303 | -87.86159 | 35910 ft | 507 kts | 228° |
| 2026-05-04 13:05 | 63.98888 | -87.98387 | 35908 ft | 508 kts | 228° |
| 2026-05-04 13:05 | 63.94390 | -88.10779 | 35885 ft | 508 kts | 228° |
| 2026-05-04 13:06 | 63.89879 | -88.23137 | 35884 ft | 507 kts | 228° |
| 2026-05-04 13:06 | 63.85365 | -88.35434 | 35877 ft | 507 kts | 228° |
| 2026-05-04 13:07 | 63.80840 | -88.47693 | 35877 ft | 507 kts | 228° |
| 2026-05-04 13:07 | 63.76297 | -88.59937 | 35880 ft | 507 kts | 227° |
| 2026-05-04 13:08 | 63.71753 | -88.72113 | 35891 ft | 508 kts | 228° |
| 2026-05-04 13:08 | 63.67183 | -88.84292 | 35878 ft | 509 kts | 227° |
| 2026-05-04 13:09 | 63.62603 | -88.96432 | 35877 ft | 509 kts | 227° |
| 2026-05-04 13:09 | 63.58011 | -89.08539 | 35872 ft | 509 kts | 227° |
| 2026-05-04 13:10 | 63.53406 | -89.20614 | 35870 ft | 509 kts | 227° |
| 2026-05-04 13:10 | 63.48790 | -89.32651 | 35861 ft | 509 kts | 227° |
| 2026-05-04 13:11 | 63.44198 | -89.44561 | 35868 ft | 509 kts | 227° |
| 2026-05-04 13:11 | 63.39531 | -89.56599 | 35864 ft | 509 kts | 227° |
| 2026-05-04 13:12 | 63.34922 | -89.68427 | 35854 ft | 509 kts | 227° |
| 2026-05-04 13:12 | 63.30272 | -89.80294 | 35849 ft | 509 kts | 227° |
| 2026-05-04 13:13 | 63.25609 | -89.92131 | 35853 ft | 508 kts | 227° |
| 2026-05-04 13:13 | 63.20945 | -90.03909 | 35838 ft | 508 kts | 227° |
| 2026-05-04 13:14 | 63.16267 | -90.15659 | 35865 ft | 508 kts | 226° |
| 2026-05-04 13:14 | 63.11572 | -90.27390 | 35856 ft | 509 kts | 227° |
| 2026-05-04 13:15 | 63.06870 | -90.39074 | 35849 ft | 510 kts | 227° |
| 2026-05-04 13:15 | 63.02150 | -90.50743 | 35846 ft | 510 kts | 226° |
| 2026-05-04 13:16 | 62.97422 | -90.62372 | 35841 ft | 510 kts | 226° |
| 2026-05-04 13:16 | 62.92683 | -90.73964 | 35843 ft | 510 kts | 226° |
| 2026-05-04 13:17 | 62.87936 | -90.85517 | 35819 ft | 510 kts | 226° |
| 2026-05-04 13:17 | 62.83181 | -90.97028 | 35828 ft | 510 kts | 226° |
| 2026-05-04 13:18 | 62.78409 | -91.08521 | 35847 ft | 510 kts | 226° |
| 2026-05-04 13:18 | 62.73635 | -91.19959 | 35829 ft | 510 kts | 226° |
| 2026-05-04 13:19 | 62.68883 | -91.31286 | 35831 ft | 510 kts | 226° |
| 2026-05-04 13:19 | 62.64089 | -91.42654 | 35827 ft | 509 kts | 226° |
| 2026-05-04 13:20 | 62.59289 | -91.53978 | 35817 ft | 509 kts | 226° |
| 2026-05-04 13:20 | 62.54479 | -91.65268 | 35819 ft | 509 kts | 226° |
| 2026-05-04 13:21 | 62.49665 | -91.76509 | 35835 ft | 509 kts | 226° |
| 2026-05-04 13:21 | 62.44941 | -91.87483 | 35825 ft | 510 kts | 226° |
| 2026-05-04 13:22 | 62.40094 | -91.98689 | 35817 ft | 510 kts | 225° |
| 2026-05-04 13:22 | 62.35242 | -92.09847 | 35817 ft | 510 kts | 225° |
| 2026-05-04 13:23 | 62.30373 | -92.20988 | 35810 ft | 510 kts | 225° |
| 2026-05-04 13:23 | 62.25504 | -92.32074 | 35802 ft | 510 kts | 225° |
| 2026-05-04 13:24 | 62.20637 | -92.43100 | 35816 ft | 509 kts | 225° |
| 2026-05-04 13:24 | 62.15751 | -92.54112 | 35823 ft | 510 kts | 225° |
| 2026-05-04 13:25 | 62.08439 | -92.70490 | 35816 ft | 510 kts | 225° |
| 2026-05-04 13:25 | 62.03532 | -92.81414 | 35814 ft | 510 kts | 225° |
| 2026-05-04 13:26 | 61.98616 | -92.92302 | 35808 ft | 510 kts | 225° |
| 2026-05-04 13:26 | 61.93694 | -93.03150 | 35809 ft | 509 kts | 225° |
| 2026-05-04 13:27 | 61.88764 | -93.13963 | 35814 ft | 509 kts | 225° |
| 2026-05-04 13:27 | 61.83833 | -93.24724 | 35807 ft | 510 kts | 224° |
| 2026-05-04 13:28 | 61.78882 | -93.35473 | 35797 ft | 510 kts | 224° |
| 2026-05-04 13:28 | 61.73920 | -93.46196 | 35800 ft | 510 kts | 224° |
| 2026-05-04 13:29 | 61.68956 | -93.56873 | 35810 ft | 510 kts | 224° |
| 2026-05-04 13:29 | 61.63983 | -93.67515 | 35798 ft | 510 kts | 224° |
| 2026-05-04 13:30 | 61.59839 | -93.76342 | 35810 ft | 510 kts | 224° |
| 2026-05-04 13:30 | 61.54845 | -93.86935 | 35809 ft | 510 kts | 224° |
| 2026-05-04 13:31 | 61.49854 | -93.97468 | 35810 ft | 510 kts | 224° |
| 2026-05-04 13:31 | 61.44849 | -94.07982 | 35805 ft | 510 kts | 224° |
| 2026-05-04 13:32 | 61.39837 | -94.18459 | 35806 ft | 509 kts | 224° |
| 2026-05-04 13:32 | 61.34821 | -94.28894 | 35805 ft | 509 kts | 224° |
| 2026-05-04 13:33 | 61.29805 | -94.39279 | 35804 ft | 509 kts | 224° |
| 2026-05-04 13:33 | 61.24781 | -94.49631 | 35811 ft | 508 kts | 224° |
| 2026-05-04 13:34 | 61.19756 | -94.59938 | 35790 ft | 509 kts | 224° |
| 2026-05-04 13:34 | 61.14716 | -94.70226 | 35810 ft | 509 kts | 223° |
| 2026-05-04 13:35 | 61.07137 | -94.85609 | 35798 ft | 509 kts | 223° |
| 2026-05-04 13:36 | 61.02075 | -94.95826 | 35802 ft | 509 kts | 223° |
| 2026-05-04 13:36 | 60.96829 | -95.05609 | 35811 ft | 508 kts | 219° |
| 2026-05-04 13:37 | 60.91366 | -95.14863 | 35806 ft | 510 kts | 218° |
| 2026-05-04 13:37 | 60.85875 | -95.24121 | 35806 ft | 511 kts | 218° |
| 2026-05-04 13:38 | 60.80394 | -95.33382 | 35812 ft | 511 kts | 218° |
| 2026-05-04 13:38 | 60.74901 | -95.42649 | 35805 ft | 512 kts | 218° |
| 2026-05-04 13:39 | 60.69395 | -95.51900 | 35806 ft | 512 kts | 218° |
| 2026-05-04 13:39 | 60.63889 | -95.61104 | 35801 ft | 512 kts | 218° |
| 2026-05-04 13:40 | 60.58379 | -95.70273 | 35818 ft | 512 kts | 218° |
| 2026-05-04 13:40 | 60.52857 | -95.79417 | 35822 ft | 511 kts | 218° |
| 2026-05-04 13:41 | 60.47342 | -95.88509 | 35805 ft | 511 kts | 218° |
| 2026-05-04 13:41 | 60.41811 | -95.97587 | 35821 ft | 511 kts | 218° |
| 2026-05-04 13:42 | 60.33520 | -96.11118 | 35815 ft | 511 kts | 218° |
| 2026-05-04 13:42 | 60.28016 | -96.20051 | 35825 ft | 511 kts | 218° |
| 2026-05-04 13:43 | 60.22432 | -96.29072 | 35815 ft | 511 kts | 218° |
| 2026-05-04 13:43 | 60.16916 | -96.37944 | 35818 ft | 511 kts | 218° |
| 2026-05-04 13:44 | 60.11437 | -96.46717 | 35804 ft | 511 kts | 218° |
| 2026-05-04 13:44 | 60.05870 | -96.55594 | 35810 ft | 512 kts | 218° |
| 2026-05-04 13:45 | 60.00297 | -96.64439 | 35823 ft | 512 kts | 218° |
| 2026-05-04 13:45 | 59.94706 | -96.73274 | 35812 ft | 513 kts | 218° |
| 2026-05-04 13:46 | 59.89099 | -96.82095 | 35812 ft | 513 kts | 218° |
| 2026-05-04 13:46 | 59.83498 | -96.90868 | 35813 ft | 513 kts | 218° |
| 2026-05-04 13:47 | 59.77887 | -96.99619 | 35824 ft | 514 kts | 217° |
| 2026-05-04 13:47 | 59.72272 | -97.08335 | 35805 ft | 514 kts | 217° |
| 2026-05-04 13:48 | 59.66636 | -97.17047 | 35821 ft | 514 kts | 217° |
| 2026-05-04 13:48 | 59.61029 | -97.25677 | 35801 ft | 513 kts | 217° |
| 2026-05-04 13:49 | 59.55391 | -97.34316 | 35826 ft | 512 kts | 217° |
| 2026-05-04 13:49 | 59.49766 | -97.42898 | 35812 ft | 512 kts | 217° |
| 2026-05-04 13:50 | 59.44131 | -97.51458 | 35813 ft | 511 kts | 217° |
| 2026-05-04 13:50 | 59.38496 | -97.59981 | 35828 ft | 512 kts | 217° |
| 2026-05-04 13:51 | 59.32845 | -97.68491 | 35830 ft | 512 kts | 217° |
| 2026-05-04 13:51 | 59.27193 | -97.76966 | 35826 ft | 512 kts | 217° |
| 2026-05-04 13:52 | 59.18700 | -97.89634 | 35818 ft | 512 kts | 217° |
| 2026-05-04 13:53 | 59.13042 | -97.98030 | 35834 ft | 511 kts | 217° |
| 2026-05-04 13:53 | 59.07378 | -98.06396 | 35831 ft | 511 kts | 217° |
| 2026-05-04 13:54 | 58.98888 | -98.18871 | 35840 ft | 510 kts | 217° |
| 2026-05-04 13:55 | 58.90390 | -98.31280 | 35831 ft | 510 kts | 217° |
| 2026-05-04 13:55 | 58.81885 | -98.43622 | 35848 ft | 510 kts | 217° |
| 2026-05-04 13:56 | 58.76207 | -98.51817 | 35786 ft | 510 kts | 217° |
| 2026-05-04 13:57 | 58.67671 | -98.64074 | 35783 ft | 511 kts | 217° |
| 2026-05-04 13:58 | 58.56271 | -98.80324 | 35808 ft | 511 kts | 217° |
| 2026-05-04 13:58 | 58.47739 | -98.92398 | 35847 ft | 511 kts | 217° |
| 2026-05-04 13:59 | 58.42016 | -99.00456 | 35866 ft | 511 kts | 216° |
| 2026-05-04 14:00 | 58.33381 | -99.12550 | 35859 ft | 512 kts | 216° |
| 2026-05-04 14:00 | 58.24766 | -99.24541 | 35864 ft | 512 kts | 216° |
| 2026-05-04 14:01 | 58.19050 | -99.32457 | 35852 ft | 512 kts | 216° |
| 2026-05-04 14:02 | 58.10412 | -99.44359 | 35870 ft | 512 kts | 216° |
| 2026-05-04 14:02 | 58.04648 | -99.52260 | 35863 ft | 512 kts | 216° |
| 2026-05-04 14:03 | 57.98952 | -99.60035 | 35867 ft | 512 kts | 216° |
| 2026-05-04 14:03 | 57.93169 | -99.67898 | 35869 ft | 512 kts | 216° |
| 2026-05-04 14:04 | 57.84491 | -99.79639 | 35866 ft | 512 kts | 216° |
| 2026-05-04 14:04 | 57.78710 | -99.87422 | 35881 ft | 512 kts | 216° |
| 2026-05-04 14:05 | 57.70010 | -99.99068 | 35883 ft | 512 kts | 216° |
| 2026-05-04 14:06 | 57.64223 | -100.06781 | 35883 ft | 511 kts | 216° |
| 2026-05-04 14:06 | 57.58461 | -100.14431 | 35875 ft | 511 kts | 216° |
| 2026-05-04 14:07 | 57.52667 | -100.22092 | 35884 ft | 511 kts | 216° |
| 2026-05-04 14:07 | 57.46866 | -100.29729 | 35875 ft | 511 kts | 216° |
| 2026-05-04 14:08 | 57.41067 | -100.37336 | 35887 ft | 510 kts | 216° |
| 2026-05-04 14:08 | 57.35295 | -100.44876 | 35884 ft | 510 kts | 216° |
| 2026-05-04 14:09 | 57.26575 | -100.56212 | 35894 ft | 511 kts | 216° |
| 2026-05-04 14:10 | 57.17848 | -100.67491 | 35901 ft | 511 kts | 216° |
| 2026-05-04 14:10 | 57.12054 | -100.74943 | 35886 ft | 511 kts | 216° |
| 2026-05-04 14:11 | 57.06221 | -100.82416 | 35887 ft | 512 kts | 216° |
| 2026-05-04 14:11 | 56.97548 | -100.93475 | 35891 ft | 512 kts | 216° |
| 2026-05-04 14:12 | 56.91698 | -101.00902 | 35832 ft | 512 kts | 216° |
| 2026-05-04 14:13 | 56.82492 | -101.10642 | 35829 ft | 513 kts | 202° |
| 2026-05-04 14:13 | 56.75822 | -101.15312 | 35846 ft | 513 kts | 201° |
| 2026-05-04 14:14 | 56.69190 | -101.19964 | 35852 ft | 514 kts | 201° |
| 2026-05-04 14:14 | 56.60326 | -101.26259 | 35888 ft | 514 kts | 202° |
| 2026-05-04 14:15 | 56.47123 | -101.35632 | 35884 ft | 514 kts | 202° |
| 2026-05-04 14:16 | 56.37130 | -101.42673 | 35880 ft | 514 kts | 202° |
| 2026-05-04 14:17 | 56.27198 | -101.49628 | 35883 ft | 514 kts | 202° |
| 2026-05-04 14:18 | 56.17189 | -101.56600 | 35875 ft | 514 kts | 202° |
| 2026-05-04 14:19 | 56.03820 | -101.65852 | 35884 ft | 516 kts | 202° |
| 2026-05-04 14:19 | 55.97105 | -101.70472 | 35882 ft | 517 kts | 202° |
| 2026-05-04 14:20 | 55.90386 | -101.75078 | 35879 ft | 517 kts | 202° |
| 2026-05-04 14:20 | 55.83664 | -101.79669 | 35881 ft | 518 kts | 201° |
| 2026-05-04 14:21 | 55.73599 | -101.86512 | 35865 ft | 518 kts | 201° |
| 2026-05-04 14:21 | 55.66877 | -101.91060 | 35879 ft | 518 kts | 202° |
| 2026-05-04 14:22 | 55.60477 | -101.95376 | 35892 ft | 518 kts | 201° |
| 2026-05-04 14:22 | 55.53691 | -101.99935 | 35885 ft | 519 kts | 201° |
| 2026-05-04 14:23 | 55.43607 | -102.06680 | 35891 ft | 519 kts | 201° |
| 2026-05-04 14:24 | 55.36857 | -102.11173 | 35888 ft | 519 kts | 201° |
| 2026-05-04 14:24 | 55.30109 | -102.15649 | 35901 ft | 519 kts | 201° |
| 2026-05-04 14:25 | 55.23340 | -102.20122 | 35861 ft | 519 kts | 201° |
| 2026-05-04 14:25 | 55.13237 | -102.26768 | 35883 ft | 518 kts | 201° |
| 2026-05-04 14:26 | 55.06759 | -102.31011 | 35897 ft | 518 kts | 201° |
| 2026-05-04 14:26 | 55.00006 | -102.35418 | 35889 ft | 518 kts | 201° |
| 2026-05-04 14:27 | 54.93270 | -102.39799 | 35886 ft | 518 kts | 201° |
| 2026-05-04 14:27 | 54.86577 | -102.44135 | 35894 ft | 518 kts | 201° |
| 2026-05-04 14:28 | 54.79873 | -102.48465 | 35899 ft | 518 kts | 201° |
| 2026-05-04 14:28 | 54.73107 | -102.52818 | 35874 ft | 518 kts | 202° |
| 2026-05-04 14:29 | 54.59600 | -102.61462 | 35891 ft | 518 kts | 202° |
| 2026-05-04 14:30 | 54.52833 | -102.65769 | 35899 ft | 518 kts | 202° |
| 2026-05-04 14:31 | 54.42682 | -102.72202 | 35899 ft | 518 kts | 202° |
| 2026-05-04 14:32 | 54.29141 | -102.80731 | 35897 ft | 518 kts | 202° |
| 2026-05-04 14:32 | 54.22370 | -102.84974 | 35879 ft | 518 kts | 202° |
| 2026-05-04 14:33 | 54.15605 | -102.89197 | 35897 ft | 518 kts | 202° |
| 2026-05-04 14:33 | 54.08828 | -102.93414 | 35903 ft | 518 kts | 202° |
| 2026-05-04 14:34 | 54.02045 | -102.97619 | 35905 ft | 518 kts | 202° |
| 2026-05-04 14:34 | 53.95266 | -103.01808 | 35904 ft | 518 kts | 202° |
| 2026-05-04 14:35 | 53.88490 | -103.05981 | 35903 ft | 518 kts | 202° |
| 2026-05-04 14:35 | 53.81708 | -103.10142 | 35906 ft | 518 kts | 202° |
| 2026-05-04 14:36 | 53.74926 | -103.14289 | 35872 ft | 518 kts | 202° |
| 2026-05-04 14:36 | 53.68156 | -103.18414 | 35902 ft | 517 kts | 202° |
| 2026-05-04 14:37 | 53.61383 | -103.22528 | 35906 ft | 517 kts | 202° |
| 2026-05-04 14:37 | 53.54620 | -103.26622 | 35890 ft | 517 kts | 202° |
| 2026-05-04 14:38 | 53.47855 | -103.30702 | 35902 ft | 517 kts | 202° |
| 2026-05-04 14:38 | 53.41126 | -103.34746 | 35905 ft | 517 kts | 202° |
| 2026-05-04 14:39 | 53.34359 | -103.38801 | 35905 ft | 516 kts | 202° |
| 2026-05-04 14:39 | 53.27593 | -103.42841 | 35901 ft | 516 kts | 202° |
| 2026-05-04 14:40 | 53.17460 | -103.48866 | 35889 ft | 515 kts | 203° |
| 2026-05-04 14:40 | 53.10699 | -103.52869 | 35895 ft | 515 kts | 203° |
| 2026-05-04 14:41 | 53.03949 | -103.56854 | 35902 ft | 516 kts | 202° |
| 2026-05-04 14:42 | 52.90415 | -103.64800 | 35905 ft | 516 kts | 203° |
| 2026-05-04 14:42 | 52.83638 | -103.68760 | 35912 ft | 516 kts | 203° |
| 2026-05-04 14:43 | 52.76862 | -103.72706 | 35882 ft | 516 kts | 203° |
| 2026-05-04 14:43 | 52.70208 | -103.76568 | 35905 ft | 516 kts | 203° |
| 2026-05-04 14:44 | 52.63436 | -103.80487 | 35920 ft | 516 kts | 203° |
| 2026-05-04 14:44 | 52.56649 | -103.84401 | 35916 ft | 517 kts | 203° |
| 2026-05-04 14:45 | 52.49866 | -103.88299 | 35920 ft | 517 kts | 203° |
| 2026-05-04 14:45 | 52.43068 | -103.92194 | 35917 ft | 517 kts | 203° |
| 2026-05-04 14:46 | 52.36284 | -103.96067 | 35921 ft | 517 kts | 203° |
| 2026-05-04 14:46 | 52.29491 | -103.99933 | 35905 ft | 516 kts | 203° |
| 2026-05-04 14:47 | 52.22781 | -104.03739 | 35919 ft | 516 kts | 203° |
| 2026-05-04 14:47 | 52.16092 | -104.07523 | 35922 ft | 515 kts | 203° |
| 2026-05-04 14:48 | 52.09323 | -104.11338 | 35938 ft | 515 kts | 203° |
| 2026-05-04 14:48 | 52.02595 | -104.15119 | 35934 ft | 515 kts | 203° |
| 2026-05-04 14:49 | 51.95826 | -104.18910 | 35934 ft | 515 kts | 203° |
| 2026-05-04 14:49 | 51.89052 | -104.22692 | 35926 ft | 514 kts | 203° |
| 2026-05-04 14:50 | 51.82296 | -104.26451 | 35934 ft | 514 kts | 203° |
| 2026-05-04 14:50 | 51.75532 | -104.30204 | 35941 ft | 513 kts | 203° |
| 2026-05-04 14:51 | 51.68785 | -104.33936 | 35939 ft | 513 kts | 203° |
| 2026-05-04 14:51 | 51.62027 | -104.37661 | 35931 ft | 513 kts | 203° |
| 2026-05-04 14:52 | 51.55274 | -104.41372 | 35941 ft | 512 kts | 203° |
| 2026-05-04 14:52 | 51.48536 | -104.45063 | 35935 ft | 511 kts | 203° |
| 2026-05-04 14:53 | 51.41801 | -104.48741 | 35938 ft | 511 kts | 203° |
| 2026-05-04 14:53 | 51.35079 | -104.52400 | 35936 ft | 510 kts | 203° |
| 2026-05-04 14:54 | 51.28359 | -104.56047 | 35932 ft | 509 kts | 203° |
| 2026-05-04 14:54 | 51.21650 | -104.59678 | 35938 ft | 509 kts | 203° |
| 2026-05-04 14:55 | 51.14954 | -104.63290 | 35946 ft | 509 kts | 202° |
| 2026-05-04 14:55 | 51.08295 | -104.66871 | 35944 ft | 508 kts | 203° |
| 2026-05-04 14:56 | 51.01590 | -104.70465 | 35948 ft | 508 kts | 203° |
| 2026-05-04 14:56 | 50.94890 | -104.74047 | 35945 ft | 508 kts | 203° |
| 2026-05-04 14:57 | 50.88194 | -104.77615 | 35944 ft | 507 kts | 203° |
| 2026-05-04 14:57 | 50.81502 | -104.81171 | 35951 ft | 507 kts | 203° |
| 2026-05-04 14:58 | 50.74806 | -104.84719 | 35949 ft | 507 kts | 203° |
| 2026-05-04 14:58 | 50.69245 | -104.87657 | 35948 ft | 508 kts | 203° |
| 2026-05-04 14:59 | 50.61601 | -104.92397 | 35935 ft | 504 kts | 208° |
| 2026-05-04 15:00 | 50.51998 | -104.99099 | 35934 ft | 503 kts | 208° |
| 2026-05-04 15:00 | 50.46628 | -105.02809 | 35967 ft | 503 kts | 208° |
| 2026-05-04 15:01 | 50.37314 | -105.09180 | 35967 ft | 503 kts | 208° |
| 2026-05-04 15:01 | 50.30891 | -105.13552 | 35961 ft | 504 kts | 208° |
| 2026-05-04 15:02 | 50.24455 | -105.17921 | 35959 ft | 504 kts | 208° |
| 2026-05-04 15:02 | 50.18022 | -105.22277 | 35970 ft | 504 kts | 208° |
| 2026-05-04 15:03 | 50.11587 | -105.26622 | 35933 ft | 504 kts | 208° |
| 2026-05-04 15:03 | 50.05157 | -105.30950 | 35962 ft | 504 kts | 208° |
| 2026-05-04 15:04 | 49.98709 | -105.35279 | 35979 ft | 504 kts | 208° |
| 2026-05-04 15:04 | 49.92266 | -105.39591 | 35971 ft | 505 kts | 208° |
| 2026-05-04 15:05 | 49.85806 | -105.43902 | 35983 ft | 505 kts | 208° |
| 2026-05-04 15:05 | 49.79372 | -105.48182 | 35967 ft | 505 kts | 209° |
| 2026-05-04 15:06 | 49.72911 | -105.52468 | 35939 ft | 504 kts | 209° |
| 2026-05-04 15:07 | 49.63278 | -105.58835 | 35971 ft | 504 kts | 209° |
| 2026-05-04 15:07 | 49.56820 | -105.63090 | 35961 ft | 504 kts | 209° |
| 2026-05-04 15:08 | 49.50368 | -105.67327 | 35957 ft | 504 kts | 209° |
| 2026-05-04 15:08 | 49.43923 | -105.71547 | 35961 ft | 503 kts | 209° |
| 2026-05-04 15:09 | 49.37519 | -105.75729 | 35967 ft | 503 kts | 209° |
| 2026-05-04 15:09 | 49.31037 | -105.79949 | 35945 ft | 502 kts | 210° |
| 2026-05-04 15:10 | 49.21427 | -105.86186 | 35963 ft | 502 kts | 210° |
| 2026-05-04 15:11 | 49.11778 | -105.92422 | 35975 ft | 503 kts | 210° |
| 2026-05-04 15:11 | 49.05330 | -105.96575 | 35968 ft | 502 kts | 210° |
| 2026-05-04 15:12 | 48.98946 | -106.00840 | 35969 ft | 497 kts | 214° |
| 2026-05-04 15:12 | 48.92993 | -106.06038 | 35951 ft | 492 kts | 218° |
| 2026-05-04 15:13 | 48.87087 | -106.11313 | 35976 ft | 493 kts | 218° |
| 2026-05-04 15:13 | 48.81156 | -106.16553 | 35965 ft | 493 kts | 218° |
| 2026-05-04 15:14 | 48.75217 | -106.21750 | 35967 ft | 493 kts | 218° |
| 2026-05-04 15:14 | 48.69281 | -106.26920 | 35969 ft | 492 kts | 218° |
| 2026-05-04 15:15 | 48.63358 | -106.32064 | 35961 ft | 490 kts | 218° |
| 2026-05-04 15:15 | 48.57433 | -106.37199 | 35965 ft | 491 kts | 218° |
| 2026-05-04 15:16 | 48.48563 | -106.44862 | 35961 ft | 490 kts | 218° |
| 2026-05-04 15:17 | 48.39726 | -106.52467 | 35968 ft | 490 kts | 218° |
| 2026-05-04 15:17 | 48.30861 | -106.60062 | 35945 ft | 489 kts | 218° |
| 2026-05-04 15:18 | 48.24956 | -106.65105 | 35968 ft | 488 kts | 218° |
| 2026-05-04 15:19 | 48.16103 | -106.72642 | 35970 ft | 488 kts | 218° |
| 2026-05-04 15:19 | 48.07247 | -106.80150 | 35968 ft | 488 kts | 218° |
| 2026-05-04 15:20 | 48.01351 | -106.85130 | 35970 ft | 486 kts | 218° |
| 2026-05-04 15:20 | 47.95465 | -106.90089 | 35971 ft | 485 kts | 218° |
| 2026-05-04 15:21 | 47.89583 | -106.95033 | 35975 ft | 484 kts | 218° |
| 2026-05-04 15:22 | 47.80775 | -107.02414 | 35963 ft | 484 kts | 218° |
| 2026-05-04 15:22 | 47.72001 | -107.09734 | 35955 ft | 481 kts | 217° |
| 2026-05-04 15:23 | 47.66157 | -107.14596 | 35969 ft | 481 kts | 217° |
| 2026-05-04 15:23 | 47.60309 | -107.19449 | 35987 ft | 482 kts | 217° |
| 2026-05-04 15:24 | 47.48585 | -107.29139 | 35991 ft | 483 kts | 217° |
| 2026-05-04 15:25 | 47.42704 | -107.33980 | 35955 ft | 483 kts | 217° |
| 2026-05-04 15:26 | 47.33930 | -107.41179 | 35974 ft | 484 kts | 217° |
| 2026-05-04 15:26 | 47.25143 | -107.48361 | 35977 ft | 483 kts | 217° |
| 2026-05-04 15:27 | 47.16300 | -107.55561 | 35971 ft | 482 kts | 217° |
| 2026-05-04 15:28 | 47.07518 | -107.62683 | 35963 ft | 480 kts | 216° |
| 2026-05-04 15:29 | 46.98813 | -107.69718 | 35965 ft | 478 kts | 216° |
| 2026-05-04 15:30 | 46.78465 | -107.86062 | 35971 ft | 476 kts | 216° |
| 2026-05-04 15:31 | 46.69746 | -107.93020 | 35981 ft | 477 kts | 216° |
| 2026-05-04 15:32 | 46.55185 | -108.04585 | 35930 ft | 476 kts | 215° |
| 2026-05-04 15:34 | 46.40698 | -108.16017 | 36001 ft | 473 kts | 214° |
| 2026-05-04 15:34 | 46.32027 | -108.22830 | 35994 ft | 473 kts | 214° |
| 2026-05-04 15:35 | 46.23370 | -108.29604 | 36006 ft | 471 kts | 214° |
| 2026-05-04 15:36 | 46.14763 | -108.36317 | 36020 ft | 471 kts | 214° |
| 2026-05-04 15:36 | 46.08996 | -108.40803 | 36017 ft | 471 kts | 214° |
| 2026-05-04 15:37 | 46.03219 | -108.45283 | 36046 ft | 471 kts | 214° |
| 2026-05-04 15:37 | 45.97445 | -108.49751 | 36060 ft | 471 kts | 214° |
| 2026-05-04 15:38 | 45.91663 | -108.54214 | 36072 ft | 472 kts | 214° |
| 2026-05-04 15:38 | 45.85871 | -108.58678 | 36077 ft | 473 kts | 213° |
| 2026-05-04 15:39 | 45.80049 | -108.63110 | 36075 ft | 475 kts | 211° |
| 2026-05-04 15:40 | 45.71045 | -108.69167 | 36062 ft | 477 kts | 210° |
| 2026-05-04 15:40 | 45.65013 | -108.73157 | 36012 ft | 477 kts | 210° |
| 2026-05-04 15:41 | 45.58989 | -108.77159 | 36017 ft | 478 kts | 210° |
| 2026-05-04 15:41 | 45.52952 | -108.81176 | 36023 ft | 479 kts | 210° |
| 2026-05-04 15:42 | 45.46908 | -108.85193 | 36009 ft | 479 kts | 210° |
| 2026-05-04 15:42 | 45.40872 | -108.89194 | 36013 ft | 479 kts | 210° |
| 2026-05-04 15:43 | 45.34830 | -108.93188 | 35988 ft | 478 kts | 210° |
| 2026-05-04 15:43 | 45.28833 | -108.97143 | 36006 ft | 479 kts | 210° |
| 2026-05-04 15:44 | 45.22785 | -109.01124 | 36006 ft | 480 kts | 209° |
| 2026-05-04 15:44 | 45.16720 | -109.05104 | 36008 ft | 480 kts | 209° |
| 2026-05-04 15:45 | 45.10661 | -109.09072 | 36003 ft | 480 kts | 209° |
| 2026-05-04 15:45 | 45.04593 | -109.13037 | 36001 ft | 480 kts | 209° |
| 2026-05-04 15:46 | 44.98519 | -109.16996 | 36003 ft | 480 kts | 209° |
| 2026-05-04 15:46 | 44.92455 | -109.20939 | 35981 ft | 480 kts | 209° |
| 2026-05-04 15:47 | 44.86389 | -109.24875 | 35999 ft | 479 kts | 209° |
| 2026-05-04 15:47 | 44.80334 | -109.28793 | 35976 ft | 479 kts | 209° |
| 2026-05-04 15:48 | 44.75304 | -109.32041 | 35980 ft | 478 kts | 209° |
| 2026-05-04 15:48 | 44.65269 | -109.38504 | 36017 ft | 477 kts | 209° |
| 2026-05-04 15:49 | 44.60209 | -109.41757 | 36009 ft | 477 kts | 209° |
| 2026-05-04 15:49 | 44.54160 | -109.45633 | 36019 ft | 479 kts | 209° |
| 2026-05-04 15:50 | 44.51120 | -109.47578 | 36206 ft | 480 kts | 208° |
| 2026-05-04 15:50 | 44.48091 | -109.49514 | 36571 ft | 478 kts | 208° |
| 2026-05-04 15:50 | 44.45061 | -109.51446 | 36900 ft | 477 kts | 208° |
| 2026-05-04 15:50 | 44.42047 | -109.53367 | 37251 ft | 476 kts | 208° |
| 2026-05-04 15:51 | 44.39076 | -109.55259 | 37584 ft | 475 kts | 208° |
| 2026-05-04 15:51 | 44.36079 | -109.57164 | 37896 ft | 474 kts | 208° |
| 2026-05-04 15:51 | 44.30023 | -109.61013 | 37945 ft | 480 kts | 208° |
| 2026-05-04 15:52 | 44.23960 | -109.64852 | 37914 ft | 474 kts | 208° |
| 2026-05-04 15:52 | 44.17969 | -109.68637 | 37913 ft | 471 kts | 208° |
| 2026-05-04 15:53 | 44.12020 | -109.72388 | 37909 ft | 469 kts | 208° |
| 2026-05-04 15:53 | 44.06070 | -109.76137 | 37912 ft | 470 kts | 208° |
| 2026-05-04 15:54 | 44.00099 | -109.79889 | 37894 ft | 472 kts | 208° |
| 2026-05-04 15:54 | 43.94109 | -109.83640 | 37892 ft | 472 kts | 208° |
| 2026-05-04 15:55 | 43.88103 | -109.87395 | 37877 ft | 474 kts | 207° |
| 2026-05-04 15:55 | 43.82108 | -109.91132 | 37890 ft | 473 kts | 207° |
| 2026-05-04 15:56 | 43.76155 | -109.94839 | 37880 ft | 472 kts | 207° |
| 2026-05-04 15:56 | 43.70159 | -109.98563 | 37891 ft | 472 kts | 207° |
| 2026-05-04 15:57 | 43.64173 | -110.02273 | 37879 ft | 471 kts | 207° |
| 2026-05-04 15:57 | 43.58191 | -110.05971 | 37889 ft | 471 kts | 207° |
| 2026-05-04 15:58 | 43.52219 | -110.09655 | 37903 ft | 470 kts | 207° |
| 2026-05-04 15:58 | 43.46256 | -110.13326 | 37902 ft | 469 kts | 207° |
| 2026-05-04 15:59 | 43.40294 | -110.16988 | 37875 ft | 469 kts | 207° |
| 2026-05-04 15:59 | 43.34330 | -110.20644 | 37885 ft | 470 kts | 207° |
| 2026-05-04 16:00 | 43.28362 | -110.24294 | 37876 ft | 469 kts | 207° |
| 2026-05-04 16:00 | 43.22396 | -110.27935 | 37885 ft | 470 kts | 207° |
| 2026-05-04 16:01 | 43.16410 | -110.31582 | 37884 ft | 471 kts | 207° |
| 2026-05-04 16:01 | 43.10405 | -110.35232 | 37877 ft | 472 kts | 207° |
| 2026-05-04 16:02 | 43.04391 | -110.38878 | 37881 ft | 473 kts | 207° |
| 2026-05-04 16:03 | 42.95392 | -110.44320 | 37869 ft | 474 kts | 207° |
| 2026-05-04 16:03 | 42.89365 | -110.47954 | 37856 ft | 474 kts | 207° |
| 2026-05-04 16:04 | 42.83333 | -110.51584 | 37866 ft | 474 kts | 206° |
| 2026-05-04 16:04 | 42.74273 | -110.57025 | 37852 ft | 474 kts | 206° |
| 2026-05-04 16:05 | 42.68235 | -110.60638 | 37849 ft | 473 kts | 207° |
| 2026-05-04 16:06 | 42.59207 | -110.66028 | 37906 ft | 471 kts | 207° |
| 2026-05-04 16:07 | 42.47225 | -110.73154 | 37880 ft | 468 kts | 207° |
| 2026-05-04 16:08 | 42.35358 | -110.80183 | 37834 ft | 465 kts | 207° |
| 2026-05-04 16:09 | 42.20571 | -110.88904 | 37833 ft | 463 kts | 207° |
| 2026-05-04 16:10 | 42.08780 | -110.95824 | 37845 ft | 462 kts | 207° |
| 2026-05-04 16:11 | 41.96998 | -111.02710 | 37839 ft | 461 kts | 207° |
| 2026-05-04 16:12 | 41.79371 | -111.12963 | 37836 ft | 458 kts | 207° |
| 2026-05-04 16:13 | 41.67708 | -111.19706 | 37833 ft | 454 kts | 207° |
| 2026-05-04 16:14 | 41.56172 | -111.26359 | 37829 ft | 451 kts | 208° |
| 2026-05-04 16:16 | 41.41802 | -111.34607 | 37893 ft | 449 kts | 208° |
| 2026-05-04 16:17 | 41.27488 | -111.42783 | 37874 ft | 447 kts | 208° |
| 2026-05-04 16:18 | 41.16046 | -111.49288 | 37814 ft | 446 kts | 208° |
| 2026-05-04 16:19 | 41.01879 | -111.57334 | 37841 ft | 442 kts | 209° |
| 2026-05-04 16:20 | 40.87742 | -111.65276 | 37860 ft | 441 kts | 210° |
| 2026-05-04 16:22 | 40.73637 | -111.73192 | 37871 ft | 441 kts | 210° |
| 2026-05-04 16:23 | 40.56649 | -111.82675 | 37908 ft | 443 kts | 210° |
| 2026-05-04 16:25 | 40.39648 | -111.92108 | 37858 ft | 440 kts | 210° |
| 2026-05-04 16:26 | 40.20051 | -112.02922 | 37865 ft | 435 kts | 210° |
| 2026-05-04 16:28 | 40.06144 | -112.10555 | 37817 ft | 433 kts | 210° |
| 2026-05-04 16:29 | 39.86709 | -112.21167 | 37823 ft | 433 kts | 210° |
| 2026-05-04 16:31 | 39.72854 | -112.28690 | 37828 ft | 433 kts | 210° |
| 2026-05-04 16:32 | 39.56159 | -112.37712 | 37820 ft | 433 kts | 210° |
| 2026-05-04 16:33 | 39.45936 | -112.43214 | 37806 ft | 433 kts | 209° |
| 2026-05-04 16:34 | 39.37612 | -112.47681 | 37808 ft | 433 kts | 209° |
| 2026-05-04 16:35 | 39.20915 | -112.56605 | 37805 ft | 433 kts | 209° |
| 2026-05-04 16:36 | 39.12545 | -112.61063 | 37794 ft | 434 kts | 209° |
| 2026-05-04 16:37 | 39.04166 | -112.65512 | 37778 ft | 434 kts | 209° |
| 2026-05-04 16:38 | 38.93006 | -112.71421 | 37789 ft | 434 kts | 209° |
| 2026-05-04 16:39 | 38.79154 | -112.78888 | 37772 ft | 417 kts | 213° |
| 2026-05-04 16:40 | 38.68296 | -112.84510 | 37800 ft | 426 kts | 208° |
| 2026-05-04 16:41 | 38.54729 | -112.91745 | 37906 ft | 409 kts | 210° |
| 2026-05-04 16:43 | 38.41457 | -112.98454 | 37951 ft | 411 kts | 211° |
| 2026-05-04 16:43 | 38.34140 | -113.03813 | 37965 ft | 401 kts | 221° |
| 2026-05-04 16:45 | 38.21670 | -113.17711 | 37870 ft | 400 kts | 226° |
| 2026-05-04 16:46 | 38.11309 | -113.29549 | 37797 ft | 401 kts | 226° |
| 2026-05-04 16:47 | 38.03103 | -113.38922 | 37791 ft | 388 kts | 226° |
| 2026-05-04 16:48 | 37.94769 | -113.47655 | 37825 ft | 397 kts | 216° |
| 2026-05-04 16:49 | 37.84081 | -113.52371 | 37815 ft | 420 kts | 200° |
| 2026-05-04 16:50 | 37.72712 | -113.54979 | 37817 ft | 411 kts | 202° |
| 2026-05-04 16:51 | 37.64357 | -113.56981 | 37826 ft | 408 kts | 202° |
| 2026-05-04 16:52 | 37.53219 | -113.59655 | 37820 ft | 405 kts | 202° |
| 2026-05-04 16:53 | 37.44933 | -113.61641 | 37835 ft | 403 kts | 203° |
| 2026-05-04 16:54 | 37.33925 | -113.64273 | 37811 ft | 401 kts | 203° |
| 2026-05-04 16:55 | 37.17602 | -113.68161 | 37892 ft | 401 kts | 203° |
| 2026-05-04 16:56 | 37.03823 | -113.71734 | 37874 ft | 394 kts | 208° |
| 2026-05-04 16:57 | 36.96283 | -113.75330 | 37885 ft | 385 kts | 212° |
| 2026-05-04 16:58 | 36.86267 | -113.80187 | 37840 ft | 390 kts | 212° |
| 2026-05-04 17:00 | 36.71025 | -113.87536 | 37844 ft | 390 kts | 212° |
| 2026-05-04 17:01 | 36.58597 | -113.93978 | 37830 ft | 385 kts | 214° |
| 2026-05-04 17:02 | 36.48791 | -113.99459 | 37830 ft | 388 kts | 214° |
| 2026-05-04 17:03 | 36.41408 | -114.03599 | 37829 ft | 386 kts | 217° |
| 2026-05-04 17:03 | 36.34605 | -114.08671 | 37815 ft | 381 kts | 220° |
| 2026-05-04 17:04 | 36.25527 | -114.15623 | 37820 ft | 385 kts | 220° |
| 2026-05-04 17:05 | 36.16331 | -114.22640 | 37807 ft | 389 kts | 220° |
| 2026-05-04 17:06 | 36.09634 | -114.28176 | 37813 ft | 380 kts | 226° |
| 2026-05-04 17:07 | 36.04533 | -114.34046 | 37818 ft | 372 kts | 233° |
| 2026-05-04 17:07 | 36.00506 | -114.39637 | 37840 ft | 373 kts | 233° |
| 2026-05-04 17:08 | 35.95354 | -114.46811 | 37848 ft | 375 kts | 233° |
| 2026-05-04 17:09 | 35.91877 | -114.51623 | 37849 ft | 376 kts | 233° |
| 2026-05-04 17:09 | 35.88397 | -114.56426 | 37862 ft | 375 kts | 233° |
| 2026-05-04 17:10 | 35.79684 | -114.68421 | 37862 ft | 375 kts | 233° |
| 2026-05-04 17:11 | 35.76198 | -114.73212 | 37854 ft | 375 kts | 232° |
| 2026-05-04 17:12 | 35.70969 | -114.80382 | 37884 ft | 376 kts | 233° |
| 2026-05-04 17:13 | 35.62229 | -114.92353 | 37879 ft | 377 kts | 233° |
| 2026-05-04 17:14 | 35.55250 | -115.01916 | 37898 ft | 376 kts | 232° |
| 2026-05-04 17:15 | 35.50002 | -115.09071 | 37894 ft | 376 kts | 232° |
| 2026-05-04 17:16 | 35.42853 | -115.18388 | 37915 ft | 375 kts | 232° |
| 2026-05-04 17:17 | 35.35691 | -115.27704 | 37934 ft | 376 kts | 232° |
| 2026-05-04 17:18 | 35.28508 | -115.37035 | 37944 ft | 376 kts | 231° |
| 2026-05-04 17:19 | 35.21943 | -115.45540 | 37960 ft | 375 kts | 231° |
| 2026-05-04 17:20 | 35.14787 | -115.54792 | 37965 ft | 374 kts | 231° |
| 2026-05-04 17:20 | 35.09406 | -115.61708 | 37945 ft | 375 kts | 231° |
| 2026-05-04 17:21 | 35.02206 | -115.70902 | 37972 ft | 374 kts | 231° |
| 2026-05-04 17:22 | 34.98607 | -115.75493 | 37961 ft | 374 kts | 231° |
| 2026-05-04 17:23 | 34.91401 | -115.84667 | 37954 ft | 374 kts | 231° |
| 2026-05-04 17:24 | 34.85993 | -115.91537 | 37947 ft | 374 kts | 231° |
| 2026-05-04 17:25 | 34.78780 | -116.00679 | 37941 ft | 374 kts | 231° |
| 2026-05-04 17:26 | 34.71591 | -116.09822 | 37928 ft | 377 kts | 231° |
| 2026-05-04 17:27 | 34.62510 | -116.21369 | 37927 ft | 378 kts | 231° |
| 2026-05-04 17:28 | 34.55241 | -116.30583 | 37934 ft | 377 kts | 230° |
| 2026-05-04 17:29 | 34.49835 | -116.37419 | 37248 ft | 377 kts | 230° |
| 2026-05-04 17:29 | 34.44435 | -116.44237 | 34886 ft | 374 kts | 229° |
| 2026-05-04 17:30 | 34.39895 | -116.51910 | 31977 ft | 380 kts | 242° |
| 2026-05-04 17:31 | 34.37584 | -116.57661 | 30552 ft | 374 kts | 240° |
| 2026-05-04 17:31 | 34.34294 | -116.65660 | 30029 ft | 335 kts | 239° |
| 2026-05-04 17:32 | 34.32275 | -116.70595 | 29247 ft | 325 kts | 240° |
| 2026-05-04 17:33 | 34.29259 | -116.78114 | 27776 ft | 335 kts | 240° |
| 2026-05-04 17:33 | 34.28247 | -116.80642 | 27282 ft | 332 kts | 241° |
| 2026-05-04 17:34 | 34.25257 | -116.88046 | 25849 ft | 324 kts | 241° |
| 2026-05-04 17:34 | 34.24274 | -116.90480 | 25360 ft | 321 kts | 241° |
| 2026-05-04 17:35 | 34.21356 | -116.97692 | 23935 ft | 316 kts | 242° |
| 2026-05-04 17:35 | 34.19837 | -117.02693 | 22908 ft | 318 kts | 249° |
| 2026-05-04 17:35 | 34.19195 | -117.05237 | 22414 ft | 316 kts | 249° |
| 2026-05-04 17:36 | 34.18540 | -117.07767 | 21931 ft | 315 kts | 249° |
| 2026-05-04 17:36 | 34.17870 | -117.10281 | 21478 ft | 313 kts | 249° |
| 2026-05-04 17:36 | 34.17196 | -117.12779 | 21005 ft | 313 kts | 249° |
| 2026-05-04 17:36 | 34.16521 | -117.15275 | 20542 ft | 311 kts | 249° |
| 2026-05-04 17:37 | 34.15843 | -117.17756 | 20120 ft | 310 kts | 249° |
| 2026-05-04 17:37 | 34.15163 | -117.20230 | 19715 ft | 311 kts | 249° |
| 2026-05-04 17:37 | 34.14477 | -117.22712 | 19256 ft | 313 kts | 249° |
| 2026-05-04 17:37 | 34.13788 | -117.25207 | 18779 ft | 313 kts | 249° |
| 2026-05-04 17:38 | 34.13101 | -117.27701 | 18298 ft | 313 kts | 250° |
| 2026-05-04 17:38 | 34.12414 | -117.30197 | 17777 ft | 313 kts | 250° |
| 2026-05-04 17:38 | 34.11727 | -117.32686 | 17277 ft | 312 kts | 250° |
| 2026-05-04 17:38 | 34.11043 | -117.35166 | 16810 ft | 310 kts | 250° |
| 2026-05-04 17:39 | 34.09739 | -117.40111 | 15866 ft | 308 kts | 251° |
| 2026-05-04 17:39 | 34.09129 | -117.42587 | 15413 ft | 309 kts | 252° |
| 2026-05-04 17:39 | 34.08520 | -117.45044 | 14958 ft | 310 kts | 251° |
| 2026-05-04 17:40 | 34.07896 | -117.47538 | 14519 ft | 311 kts | 252° |
| 2026-05-04 17:40 | 34.07260 | -117.50040 | 14055 ft | 311 kts | 250° |
| 2026-05-04 17:40 | 34.06471 | -117.52462 | 13637 ft | 309 kts | 246° |
| 2026-05-04 17:40 | 34.05598 | -117.54823 | 13205 ft | 308 kts | 245° |
| 2026-05-04 17:41 | 34.04719 | -117.57171 | 12766 ft | 307 kts | 245° |
| 2026-05-04 17:41 | 34.03853 | -117.59517 | 12371 ft | 305 kts | 246° |
| 2026-05-04 17:41 | 34.03004 | -117.61852 | 11979 ft | 303 kts | 246° |
| 2026-05-04 17:41 | 34.02164 | -117.64175 | 11605 ft | 302 kts | 246° |
| 2026-05-04 17:42 | 34.01328 | -117.66489 | 11250 ft | 300 kts | 246° |
| 2026-05-04 17:42 | 34.00585 | -117.68811 | 10875 ft | 294 kts | 256° |
| 2026-05-04 17:42 | 34.00271 | -117.71233 | 10579 ft | 291 kts | 263° |
| 2026-05-04 17:42 | 34.00079 | -117.73653 | 10237 ft | 289 kts | 263° |
| 2026-05-04 17:43 | 33.99888 | -117.76061 | 9913 ft | 287 kts | 263° |
| 2026-05-04 17:43 | 33.99683 | -117.78425 | 9717 ft | 280 kts | 262° |
| 2026-05-04 17:43 | 33.99467 | -117.80730 | 9365 ft | 278 kts | 262° |
| 2026-05-04 17:43 | 33.99240 | -117.83085 | 8825 ft | 284 kts | 263° |
| 2026-05-04 17:44 | 33.99016 | -117.85416 | 8663 ft | 275 kts | 262° |
| 2026-05-04 17:44 | 33.98798 | -117.87654 | 8261 ft | 266 kts | 263° |
| 2026-05-04 17:44 | 33.98585 | -117.89848 | 7687 ft | 257 kts | 263° |
| 2026-05-04 17:44 | 33.98379 | -117.91946 | 7362 ft | 257 kts | 263° |
| 2026-05-04 17:45 | 33.98167 | -117.94096 | 7033 ft | 260 kts | 263° |
| 2026-05-04 17:45 | 33.97954 | -117.96261 | 6701 ft | 260 kts | 263° |
| 2026-05-04 17:45 | 33.97740 | -117.98424 | 6359 ft | 260 kts | 263° |
| 2026-05-04 17:45 | 33.97527 | -118.00585 | 6014 ft | 259 kts | 263° |
| 2026-05-04 17:46 | 33.97313 | -118.02739 | 5681 ft | 259 kts | 263° |
| 2026-05-04 17:46 | 33.97100 | -118.04888 | 5348 ft | 258 kts | 263° |
| 2026-05-04 17:46 | 33.96886 | -118.07036 | 5032 ft | 258 kts | 263° |
| 2026-05-04 17:46 | 33.96673 | -118.09181 | 4686 ft | 258 kts | 263° |
| 2026-05-04 17:47 | 33.96461 | -118.11317 | 4396 ft | 255 kts | 263° |
| 2026-05-04 17:47 | 33.96255 | -118.13373 | 4028 ft | 239 kts | 263° |
| 2026-05-04 17:47 | 33.96064 | -118.15291 | 3719 ft | 223 kts | 263° |
| 2026-05-04 17:47 | 33.95883 | -118.17097 | 3449 ft | 214 kts | 263° |
| 2026-05-04 17:48 | 33.95706 | -118.18864 | 3205 ft | 211 kts | 262° |
| 2026-05-04 17:48 | 33.95528 | -118.20614 | 2957 ft | 208 kts | 262° |
| 2026-05-04 17:48 | 33.95413 | -118.21749 | 2799 ft | 206 kts | 262° |
| 2026-05-04 17:48 | 33.95207 | -118.23943 | 2438 ft | 186 kts | 262° |
| 2026-05-04 17:49 | 33.95058 | -118.25438 | 2213 ft | 175 kts | 262° |
| 2026-05-04 17:49 | 33.94912 | -118.26856 | 2003 ft | 167 kts | 261° |
| 2026-05-04 17:49 | 33.94770 | -118.28235 | 1756 ft | 163 kts | 262° |
| 2026-05-04 17:49 | 33.94634 | -118.29570 | 1532 ft | 157 kts | 260° |
| 2026-05-04 17:50 | 33.94500 | -118.30857 | 1356 ft | 153 kts | 261° |
| 2026-05-04 17:50 | 33.94373 | -118.32095 | 1123 ft | 143 kts | 261° |
| 2026-05-04 17:50 | 33.94256 | -118.33234 | 970 ft | 135 kts | 262° |
| 2026-05-04 17:50 | 33.94141 | -118.34364 | 768 ft | 136 kts | 262° |
| 2026-05-04 17:51 | 33.94021 | -118.35488 | 626 ft | 133 kts | 263° |
| 2026-05-04 17:51 | 33.93900 | -118.36568 | 409 ft | 129 kts | 265° |
| 2026-05-04 17:51 | 33.93801 | -118.37643 | 249 ft | 127 kts | 262° |
| 2026-05-04 17:51 | 33.93696 | -118.38673 | 113 ft | 120 kts | 261° |
| 2026-05-04 17:52 | 33.93608 | -118.39559 | 102 ft | 91 kts | 263° |
| 2026-05-04 17:52 | 33.93543 | -118.40172 | 99 ft | 57 kts | 263° |
| 2026-05-04 17:52 | 33.93507 | -118.40525 | 101 ft | 36 kts | 263° |
| 2026-05-04 17:52 | 33.93481 | -118.40807 | 98 ft | 32 kts | 266° |
| 2026-05-04 17:53 | 33.93492 | -118.41020 | 100 ft | 19 kts | 282° |
| 2026-05-04 17:53 | 33.93527 | -118.41147 | 102 ft | 14 kts | 292° |
| 2026-05-04 17:53 | 33.93558 | -118.41235 | 101 ft | 11 kts | 309° |
| 2026-05-04 17:53 | 33.93625 | -118.41264 | 102 ft | 11 kts | 351° |
| 2026-05-04 17:54 | 33.93698 | -118.41276 | 102 ft | 11 kts | 354° |
| 2026-05-04 17:54 | 33.93778 | -118.41258 | 100 ft | 13 kts | 14° |
| 2026-05-04 17:54 | 33.93838 | -118.41188 | 101 ft | 12 kts | 80° |
| 2026-05-04 17:54 | 33.93850 | -118.41084 | 98 ft | 13 kts | 83° |
| 2026-05-04 17:55 | 33.93861 | -118.40974 | 99 ft | 14 kts | 83° |
| 2026-05-04 17:55 | 33.93873 | -118.40867 | 98 ft | 10 kts | 81° |
| 2026-05-04 17:55 | 33.93907 | -118.40817 | 100 ft | 8 kts | 18° |
| 2026-05-04 17:55 | 33.93966 | -118.40816 | 99 ft | 9 kts | 352° |
| 2026-05-04 17:56 | 33.94029 | -118.40826 | 100 ft | 10 kts | 353° |
| 2026-05-04 17:56 | 33.94097 | -118.40836 | 99 ft | 10 kts | 353° |
| 2026-05-04 17:56 | 33.94132 | -118.40841 | 99 ft | 1 kts | 353° |
| 2026-05-04 17:56 | 33.94141 | -118.40843 | 98 ft | 2 kts | 351° |
| 2026-05-04 17:57 | 33.94156 | -118.40859 | 98 ft | 4 kts | 304° |
| 2026-05-04 17:57 | 33.94159 | -118.40889 | 97 ft | 4 kts | 264° |
| 2026-05-04 17:57 | 33.94156 | -118.40922 | 104 ft | 3 kts | 264° |
| 2026-05-04 17:57 | 33.94155 | -118.40938 | 105 ft | 1 kts | 263° |
| 2026-05-04 17:58 | 33.94154 | -118.40945 | 103 ft | 0 kts | 263° |
| 2026-05-04 17:58 | 33.94153 | -118.40948 | 100 ft | 0 kts | 263° |